Time;durP1;ratioP1;P1;durP2;ratioP2;P2;SDS_P1;SDS_P2;PMS_P1;PMS_P2;Temp;Humidity;BMP_temperature;BMP_pressure;BME280_temperature;BME280_humidity;BME280_pressure;Samples;Min_cycle;Max_cycle;Signal;HPM_P1;HPM_P2
2021/06/02 00:00:30;;;;;;;;;;;12.30;99.90;;;;;;10456071;28;19935;-66
2021/06/02 00:05:31;;;;;;;;;;;12.30;99.90;;;;;;10484191;28;19974;-66
2021/06/02 00:10:33;;;;;;;;;;;12.30;99.90;;;;;;10482436;28;20032;-66
2021/06/02 00:15:35;;;;;;;;;;;12.20;99.90;;;;;;10481738;28;19925;-66
2021/06/02 00:20:37;;;;;;;;;;;12.10;99.90;;;;;;10464565;28;19939;-65
2021/06/02 00:25:39;;;;;;;;;;;12.00;99.90;;;;;;10484023;28;19935;-66
2021/06/02 00:30:41;;;;;;;;;;;12.00;99.90;;;;;;10450158;28;19935;-66
2021/06/02 00:35:43;;;;;;;;;;;11.90;99.90;;;;;;10491336;28;20019;-66
2021/06/02 00:40:48;;;;;;;;;;;11.70;99.90;;;;;;10467526;28;19925;-66
2021/06/02 00:45:50;;;;;;;;;;;11.70;99.90;;;;;;10452429;28;19996;-66
2021/06/02 00:50:52;;;;;;;;;;;11.70;99.90;;;;;;10488258;28;20092;-66
2021/06/02 00:56:01;;;;;;;;;;;11.60;99.90;;;;;;10451614;28;19925;-66
2021/06/02 01:01:03;;;;;;;;;;;11.50;99.90;;;;;;10457997;28;20377;-66
2021/06/02 01:06:05;;;;;;;;;;;11.50;99.90;;;;;;10490633;28;19928;-66
2021/06/02 01:11:09;;;;;;;;;;;11.30;99.90;;;;;;10485591;28;20456;-66
2021/06/02 01:16:11;;;;;;;;;;;11.20;99.90;;;;;;10488517;28;19924;-66
2021/06/02 01:21:19;;;;;;;;;;;11.30;99.90;;;;;;10485851;28;20299;-66
2021/06/02 01:26:22;;;;;;;;;;;11.20;99.90;;;;;;10456769;28;19924;-66
2021/06/02 01:31:27;;;;;;;;;;;11.10;99.90;;;;;;10490099;28;19979;-66
2021/06/02 01:36:55;;;;;;;;;;;11.10;99.90;;;;;;10449267;28;20290;-66
2021/06/02 01:42:07;;;;;;;;;;;11.10;99.90;;;;;;10441650;28;19931;-66
2021/06/02 01:47:24;;;;;;;;;;;11.00;99.90;;;;;;10462114;28;20035;-66
2021/06/02 01:52:44;;;;;;;;;;;11.00;99.90;;;;;;10474388;28;19925;-66
2021/06/02 01:57:50;;;;;;;;;;;10.90;99.90;;;;;;10459094;28;19974;-66
2021/06/02 02:03:10;;;;;;;;;;;10.80;99.90;;;;;;10452318;28;20024;-65
2021/06/02 02:08:31;;;;;;;;;;;10.70;99.90;;;;;;10484013;28;20361;-66
2021/06/02 02:13:53;;;;;;;;;;;10.70;99.90;;;;;;10487657;28;19972;-66
2021/06/02 02:19:17;;;;;;;;;;;10.60;99.90;;;;;;10443649;28;19930;-66
2021/06/02 02:24:24;;;;;;;;;;;10.60;99.90;;;;;;10461930;28;19928;-66
2021/06/02 02:29:41;;;;;;;;;;;10.60;99.90;;;;;;10485199;28;20018;-66
2021/06/02 02:35:02;;;;;;;;;;;10.50;99.90;;;;;;10462877;28;20020;-66
2021/06/02 02:40:11;;;;;;;;;;;10.40;99.90;;;;;;10488988;28;20003;-66
2021/06/02 02:45:25;;;;;;;;;;;10.30;99.90;;;;;;10455177;28;19967;-66
2021/06/02 02:50:30;;;;;;;;;;;10.40;99.90;;;;;;10454381;28;20015;-66
2021/06/02 02:55:33;;;;;;;;;;;10.20;99.90;;;;;;10455094;28;19931;-65
2021/06/02 03:00:43;;;;;;;;;;;10.20;99.90;;;;;;10454500;28;20015;-65
2021/06/02 03:06:05;;;;;;;;;;;10.20;99.90;;;;;;10452333;28;19931;-66
2021/06/02 03:11:09;;;;;;;;;;;10.10;99.90;;;;;;10463001;28;20276;-65
2021/06/02 03:16:14;;;;;;;;;;;10.10;99.90;;;;;;10475107;28;19924;-66
2021/06/02 03:21:28;;;;;;;;;;;10.10;99.90;;;;;;10459944;28;20015;-66
2021/06/02 03:26:35;;;;;;;;;;;10.00;99.90;;;;;;10445470;28;20320;-65
2021/06/02 03:31:52;;;;;;;;;;;9.90;99.90;;;;;;10446300;28;20312;-65
2021/06/02 03:37:06;;;;;;;;;;;10.00;99.90;;;;;;10449423;28;19925;-66
2021/06/02 03:42:17;;;;;;;;;;;10.00;99.90;;;;;;10484813;28;20411;-66
2021/06/02 03:47:37;;;;;;;;;;;10.00;99.90;;;;;;10484733;28;19939;-66
2021/06/02 03:52:47;;;;;;;;;;;9.60;99.90;;;;;;10446007;28;20007;-66
2021/06/02 03:57:55;;;;;;;;;;;9.50;99.90;;;;;;10428531;28;20004;-65
2021/06/02 04:03:02;;;;;;;;;;;9.80;99.90;;;;;;10452459;28;20300;-66
2021/06/02 04:08:04;;;;;;;;;;;9.90;99.90;;;;;;10453714;28;19925;-66
2021/06/02 04:13:32;;;;;;;;;;;10.10;99.90;;;;;;10453514;28;19935;-66
2021/06/02 04:18:35;;;;;;;;;;;10.70;99.90;;;;;;10456494;28;20011;-66
2021/06/02 04:23:37;;;;;;;;;;;12.50;99.90;;;;;;10467139;28;20301;-66
2021/06/02 04:28:39;;;;;;;;;;;14.20;99.90;;;;;;10452860;28;19929;-66
2021/06/02 04:33:42;;;;;;;;;;;16.00;99.90;;;;;;10466965;28;19931;-66
2021/06/02 04:38:43;;;;;;;;;;;17.60;99.00;;;;;;10435038;28;20024;-66
2021/06/02 04:43:45;;;;;;;;;;;19.00;91.20;;;;;;10452184;28;19925;-67
2021/06/02 04:48:47;;;;;;;;;;;21.60;73.20;;;;;;10486510;28;20023;-67
2021/06/02 04:53:55;;;;;;;;;;;22.60;61.00;;;;;;10490671;28;19928;-66
2021/06/02 04:59:00;;;;;;;;;;;23.40;56.90;;;;;;10491243;28;20015;-67
2021/06/02 05:04:04;;;;;;;;;;;23.80;54.50;;;;;;10473812;28;19971;-67
2021/06/02 05:09:22;;;;;;;;;;;24.20;52.80;;;;;;10466744;28;19970;-67
2021/06/02 05:14:27;;;;;;;;;;;24.70;50.90;;;;;;10471546;28;19928;-67
2021/06/02 05:19:48;;;;;;;;;;;25.70;48.80;;;;;;10469312;28;19929;-67
2021/06/02 05:24:53;;;;;;;;;;;26.30;47.00;;;;;;10488758;28;19925;-67
2021/06/02 05:30:06;;;;;;;;;;;26.70;45.90;;;;;;10473959;28;20299;-67
2021/06/02 05:35:14;;;;;;;;;;;23.30;48.00;;;;;;10474563;28;19924;-67
2021/06/02 05:40:19;;;;;;;;;;;20.20;53.60;;;;;;10494975;28;20336;-66
2021/06/02 05:45:27;;;;;;;;;;;18.30;58.20;;;;;;10488130;28;20329;-66
2021/06/02 05:50:48;;;;;;;;;;;16.80;63.70;;;;;;10476706;28;20392;-66
2021/06/02 05:56:08;;;;;;;;;;;16.30;67.60;;;;;;10485030;28;19931;-66
2021/06/02 06:01:25;;;;;;;;;;;16.10;72.10;;;;;;10481323;28;19925;-66
2021/06/02 06:06:50;;;;;;;;;;;15.90;77.50;;;;;;10512773;28;19935;-66
2021/06/02 06:12:13;;;;;;;;;;;15.40;85.10;;;;;;10460032;28;19924;-66
2021/06/02 06:17:33;;;;;;;;;;;15.20;91.40;;;;;;10471764;28;19930;-66
2021/06/02 06:22:34;;;;;;;;;;;15.40;92.40;;;;;;10485609;28;19935;-66
2021/06/02 06:27:44;;;;;;;;;;;15.70;92.30;;;;;;10477152;28;20047;-66
2021/06/02 06:32:48;;;;;;;;;;;15.60;92.60;;;;;;10480207;28;19924;-66
2021/06/02 06:37:52;;;;;;;;;;;15.50;94.50;;;;;;10481706;28;19924;-65
2021/06/02 06:42:55;;;;;;;;;;;15.60;96.40;;;;;;10485861;28;19964;-66
2021/06/02 06:48:07;;;;;;;;;;;15.40;97.20;;;;;;10457088;28;19924;-66
2021/06/02 06:53:10;;;;;;;;;;;15.70;95.80;;;;;;10474222;28;19939;-66
2021/06/02 06:58:12;;;;;;;;;;;15.90;96.80;;;;;;10476365;28;20015;-65
2021/06/02 07:03:14;;;;;;;;;;;16.50;95.50;;;;;;10468425;28;19951;-65
2021/06/02 07:08:17;;;;;;;;;;;17.20;93.60;;;;;;10445795;28;19955;-66
2021/06/02 07:13:20;;;;;;;;;;;17.60;91.20;;;;;;10449590;28;19939;-66
2021/06/02 07:18:23;;;;;;;;;;;18.50;89.10;;;;;;10456370;28;19925;-66
2021/06/02 07:23:25;;;;;;;;;;;19.70;81.40;;;;;;10465965;28;20006;-66
2021/06/02 07:28:34;;;;;;;;;;;21.60;72.10;;;;;;10462492;28;19931;-66
2021/06/02 07:33:37;;;;;;;;;;;23.20;61.40;;;;;;10457973;28;20010;-66
2021/06/02 07:38:40;;;;;;;;;;;24.30;56.90;;;;;;10476959;28;19932;-66
2021/06/02 07:43:41;;;;;;;;;;;24.80;54.20;;;;;;10472324;28;19976;-66
2021/06/02 07:48:43;;;;;;;;;;;24.60;53.00;;;;;;10485315;28;19931;-66
2021/06/02 07:53:45;;;;;;;;;;;24.80;50.80;;;;;;10491846;28;19935;-66
2021/06/02 07:58:47;;;;;;;;;;;24.70;51.50;;;;;;10485688;28;19932;-66
2021/06/02 08:03:49;;;;;;;;;;;24.90;50.90;;;;;;10488991;28;19998;-67
2021/06/02 08:08:50;;;;;;;;;;;24.90;51.20;;;;;;10471841;28;19929;-67
2021/06/02 08:13:52;;;;;;;;;;;24.70;50.40;;;;;;10468241;28;20336;-67
2021/06/02 08:18:54;;;;;;;;;;;25.30;49.40;;;;;;10462658;28;20399;-66
2021/06/02 08:23:56;;;;;;;;;;;25.70;49.20;;;;;;10480409;28;19996;-66
2021/06/02 08:28:58;;;;;;;;;;;25.80;48.70;;;;;;10486184;28;19928;-66
2021/06/02 08:34:00;;;;;;;;;;;26.20;48.70;;;;;;10461068;28;19928;-66
2021/06/02 08:39:05;;;;;;;;;;;26.30;47.70;;;;;;10471570;28;20015;-66
2021/06/02 08:44:07;;;;;;;;;;;26.20;48.30;;;;;;10455305;28;19931;-67
2021/06/02 08:49:09;;;;;;;;;;;26.30;47.90;;;;;;10465444;28;19928;-66
2021/06/02 08:54:10;;;;;;;;;;;26.40;47.10;;;;;;10473775;28;19924;-66
2021/06/02 08:59:12;;;;;;;;;;;25.80;47.40;;;;;;10471466;28;19924;-63
2021/06/02 09:04:14;;;;;;;;;;;25.90;49.30;;;;;;10485711;28;19931;-63
2021/06/02 09:09:16;;;;;;;;;;;25.90;48.60;;;;;;10484780;28;19924;-63
2021/06/02 09:14:23;;;;;;;;;;;25.40;48.40;;;;;;10466617;28;20444;-63
2021/06/02 09:19:36;;;;;;;;;;;25.80;49.50;;;;;;10462744;28;19928;-63
2021/06/02 09:24:45;;;;;;;;;;;25.90;49.30;;;;;;10483392;28;19939;-63
2021/06/02 09:29:48;;;;;;;;;;;25.80;47.40;;;;;;10461938;28;20022;-63
2021/06/02 09:34:58;;;;;;;;;;;26.10;47.60;;;;;;10466577;28;19978;-63
2021/06/02 09:40:00;;;;;;;;;;;26.20;47.30;;;;;;10485247;28;20027;-63
2021/06/02 09:45:06;;;;;;;;;;;26.10;45.60;;;;;;10486924;28;19935;-63
2021/06/02 09:50:09;;;;;;;;;;;26.10;45.10;;;;;;10486911;28;20362;-63
2021/06/02 09:55:10;;;;;;;;;;;26.40;45.30;;;;;;10477994;28;20031;-63
2021/06/02 10:00:14;;;;;;;;;;;26.70;43.50;;;;;;10448597;28;19924;-63
2021/06/02 10:05:16;;;;;;;;;;;26.10;41.10;;;;;;10447284;28;19935;-63
2021/06/02 10:10:19;;;;;;;;;;;26.20;41.10;;;;;;10484217;28;19931;-63
2021/06/02 10:15:25;;;;;;;;;;;26.20;41.00;;;;;;10443792;28;19929;-63
2021/06/02 10:20:27;;;;;;;;;;;26.40;43.80;;;;;;10457986;28;19924;-63
2021/06/02 10:25:29;;;;;;;;;;;26.20;42.40;;;;;;10428893;28;19956;-63
2021/06/02 10:30:31;;;;;;;;;;;26.40;39.40;;;;;;10455648;28;19944;-63
2021/06/02 10:35:32;;;;;;;;;;;26.70;38.40;;;;;;10463321;28;20304;-63
2021/06/02 10:40:36;;;;;;;;;;;26.90;37.40;;;;;;10484666;28;20328;-63
2021/06/02 10:45:43;;;;;;;;;;;26.50;38.80;;;;;;10464005;28;19939;-63
2021/06/02 10:50:47;;;;;;;;;;;26.30;40.30;;;;;;10457287;28;19925;-63
2021/06/02 10:55:48;;;;;;;;;;;26.00;38.60;;;;;;10473204;28;20304;-63
2021/06/02 11:01:08;;;;;;;;;;;25.70;38.90;;;;;;10471700;28;20019;-63
2021/06/02 11:06:13;;;;;;;;;;;25.70;37.10;;;;;;10448681;28;20011;-63
2021/06/02 11:11:21;;;;;;;;;;;25.60;38.40;;;;;;10479484;28;20019;-63
2021/06/02 11:16:38;;;;;;;;;;;25.60;37.70;;;;;;10465905;28;20066;-63
2021/06/02 11:21:52;;;;;;;;;;;25.70;39.80;;;;;;10474411;28;19939;-63
2021/06/02 11:27:15;;;;;;;;;;;25.40;39.60;;;;;;10445533;28;19929;-63
2021/06/02 11:32:21;;;;;;;;;;;25.40;39.20;;;;;;10458562;28;19930;-63
2021/06/02 11:37:26;;;;;;;;;;;25.40;41.20;;;;;;10492569;28;19925;-62
2021/06/02 11:42:30;;;;;;;;;;;25.50;41.50;;;;;;10475412;28;19924;-63
2021/06/02 11:47:33;;;;;;;;;;;25.60;39.20;;;;;;10480366;28;19925;-63
2021/06/02 11:52:35;;;;;;;;;;;25.60;40.00;;;;;;10468364;28;20341;-63
2021/06/02 11:57:40;;;;;;;;;;;25.80;40.20;;;;;;10466440;28;19928;-62
2021/06/02 12:02:42;;;;;;;;;;;25.80;40.60;;;;;;10452407;28;19971;-63
2021/06/02 12:07:44;;;;;;;;;;;26.00;39.00;;;;;;10464245;28;20363;-63
2021/06/02 12:12:47;;;;;;;;;;;26.00;39.50;;;;;;10478838;28;19982;-63
2021/06/02 12:17:50;;;;;;;;;;;26.00;40.10;;;;;;10466337;28;20627;-63
2021/06/02 12:22:52;;;;;;;;;;;26.00;40.50;;;;;;10466337;28;19924;-63
2021/06/02 12:27:55;;;;;;;;;;;26.10;39.20;;;;;;10471103;28;19933;-63
2021/06/02 12:33:01;;;;;;;;;;;26.40;38.40;;;;;;10504759;28;19995;-63
2021/06/02 12:38:17;;;;;;;;;;;26.20;40.00;;;;;;10486477;28;19934;-63
2021/06/02 12:43:20;;;;;;;;;;;26.20;38.90;;;;;;10451349;28;19930;-63
2021/06/02 12:48:32;;;;;;;;;;;26.10;39.70;;;;;;10479315;28;19925;-63
2021/06/02 12:53:35;;;;;;;;;;;26.30;38.50;;;;;;10488024;28;19925;-63
2021/06/02 12:58:37;;;;;;;;;;;26.20;39.20;;;;;;10471114;28;19994;-63
2021/06/02 13:03:46;;;;;;;;;;;26.40;37.20;;;;;;10477811;28;20365;-63
2021/06/02 13:08:48;;;;;;;;;;;26.50;39.70;;;;;;10486534;28;19924;-63
2021/06/02 13:13:50;;;;;;;;;;;26.40;39.40;;;;;;10455049;28;19928;-63
2021/06/02 13:18:56;;;;;;;;;;;26.50;40.30;;;;;;10480219;28;20269;-63
2021/06/02 13:24:07;;;;;;;;;;;26.50;37.80;;;;;;10463559;28;19931;-63
2021/06/02 13:29:10;;;;;;;;;;;26.50;37.70;;;;;;10457390;28;20007;-64
2021/06/02 13:34:31;;;;;;;;;;;26.40;37.20;;;;;;10455302;28;19932;-63
2021/06/02 13:39:33;;;;;;;;;;;26.40;35.80;;;;;;10473954;28;20007;-63
2021/06/02 13:44:35;;;;;;;;;;;26.60;35.40;;;;;;10475446;28;20292;-63
2021/06/02 13:49:37;;;;;;;;;;;26.60;34.90;;;;;;10445617;28;20396;-63
2021/06/02 13:54:39;;;;;;;;;;;26.50;33.70;;;;;;10482902;28;19925;-63
2021/06/02 13:59:47;;;;;;;;;;;26.70;34.70;;;;;;10453043;28;20687;-63
2021/06/02 14:04:50;;;;;;;;;;;26.70;34.90;;;;;;10481916;28;20269;-63
2021/06/02 14:09:52;;;;;;;;;;;26.60;34.00;;;;;;10481690;28;19924;-63
2021/06/02 14:14:55;;;;;;;;;;;26.60;33.60;;;;;;10482970;28;20419;-63
2021/06/02 14:19:57;;;;;;;;;;;26.60;31.70;;;;;;10467606;28;20400;-62
2021/06/02 14:24:59;;;;;;;;;;;26.60;33.30;;;;;;10466100;28;20312;-63
2021/06/02 14:30:01;;;;;;;;;;;26.70;32.20;;;;;;10448590;28;20222;-62
2021/06/02 14:35:03;;;;;;;;;;;26.70;32.10;;;;;;10446152;28;19961;-63
2021/06/02 14:40:05;;;;;;;;;;;26.80;34.20;;;;;;10463419;28;19931;-63
2021/06/02 14:45:08;;;;;;;;;;;26.80;33.20;;;;;;10471245;28;19932;-63
2021/06/02 14:50:10;;;;;;;;;;;26.70;34.00;;;;;;10456776;28;19929;-63
2021/06/02 14:55:11;;;;;;;;;;;26.80;31.80;;;;;;10452789;28;19967;-63
2021/06/02 15:00:13;;;;;;;;;;;26.80;31.50;;;;;;10467440;28;19961;-63
2021/06/02 15:05:15;;;;;;;;;;;26.60;31.60;;;;;;10446274;28;19929;-64
2021/06/02 15:10:17;;;;;;;;;;;26.70;34.20;;;;;;10458134;28;19925;-63
2021/06/02 15:15:30;;;;;;;;;;;26.60;30.80;;;;;;10481759;28;20388;-63
2021/06/02 15:20:32;;;;;;;;;;;26.40;29.90;;;;;;10478748;28;20306;-63
2021/06/02 15:25:34;;;;;;;;;;;26.40;32.80;;;;;;10468403;28;19925;-63
2021/06/02 15:30:37;;;;;;;;;;;26.50;32.20;;;;;;10476864;28;19924;-63
2021/06/02 15:35:40;;;;;;;;;;;26.50;30.60;;;;;;10470124;28;19925;-63
2021/06/02 15:40:41;;;;;;;;;;;26.50;31.10;;;;;;10459990;28;20018;-63
2021/06/02 15:45:43;;;;;;;;;;;26.40;32.00;;;;;;10480807;28;19925;-63
2021/06/02 15:50:45;;;;;;;;;;;26.40;30.70;;;;;;10476406;28;19930;-63
2021/06/02 15:55:48;;;;;;;;;;;26.40;30.90;;;;;;10479635;28;20024;-63
2021/06/02 16:00:50;;;;;;;;;;;26.50;32.10;;;;;;10474903;28;20022;-63
2021/06/02 16:05:52;;;;;;;;;;;26.60;31.80;;;;;;10447410;28;20288;-62
2021/06/02 16:10:54;;;;;;;;;;;26.70;31.50;;;;;;10483341;28;20014;-63
2021/06/02 16:15:57;;;;;;;;;;;26.60;31.80;;;;;;10489812;28;20207;-63
2021/06/02 16:20:58;;;;;;;;;;;26.70;32.70;;;;;;10487820;28;19925;-63
2021/06/02 16:26:00;;;;;;;;;;;26.60;32.50;;;;;;10451833;28;19932;-63
2021/06/02 16:31:02;;;;;;;;;;;26.70;33.50;;;;;;10468004;28;20406;-63
2021/06/02 16:36:06;;;;;;;;;;;26.80;32.90;;;;;;10470442;28;19925;-63
2021/06/02 16:41:10;;;;;;;;;;;26.70;32.40;;;;;;10466774;28;20015;-63
2021/06/02 16:46:12;;;;;;;;;;;26.50;32.40;;;;;;10451461;28;20288;-63
2021/06/02 16:51:18;;;;;;;;;;;26.50;32.00;;;;;;10486616;28;20015;-63
2021/06/02 16:56:22;;;;;;;;;;;26.50;33.60;;;;;;10451619;28;19925;-63
2021/06/02 17:01:24;;;;;;;;;;;26.50;35.90;;;;;;10450513;28;19939;-62
2021/06/02 17:06:27;;;;;;;;;;;26.40;34.80;;;;;;10449144;28;19924;-62
2021/06/02 17:11:29;;;;;;;;;;;26.40;34.30;;;;;;10449448;28;19931;-63
2021/06/02 17:16:32;;;;;;;;;;;26.50;36.10;;;;;;10448931;28;19936;-63
2021/06/02 17:21:34;;;;;;;;;;;26.40;35.90;;;;;;10474791;28;19924;-63
2021/06/02 17:26:37;;;;;;;;;;;26.40;36.60;;;;;;10484113;28;19932;-63
2021/06/02 17:31:39;;;;;;;;;;;26.40;36.40;;;;;;10502537;28;19928;-63
2021/06/02 17:36:42;;;;;;;;;;;26.30;35.70;;;;;;10450346;28;20328;-63
2021/06/02 17:41:44;;;;;;;;;;;26.10;36.50;;;;;;10473162;28;19924;-63
2021/06/02 17:46:47;;;;;;;;;;;26.00;37.10;;;;;;10460999;28;19931;-63
2021/06/02 17:51:51;;;;;;;;;;;25.90;38.60;;;;;;10456268;28;19931;-63
2021/06/02 17:56:57;;;;;;;;;;;25.60;40.90;;;;;;10480125;28;20299;-63
2021/06/02 18:02:00;;;;;;;;;;;25.40;40.30;;;;;;10468156;28;19924;-63
2021/06/02 18:07:02;;;;;;;;;;;25.20;41.30;;;;;;10448947;28;19974;-62
2021/06/02 18:12:05;;;;;;;;;;;25.10;41.30;;;;;;10473038;28;19928;-63
2021/06/02 18:17:09;;;;;;;;;;;25.00;42.20;;;;;;10470260;28;19975;-63
2021/06/02 18:22:11;;;;;;;;;;;24.80;42.10;;;;;;10452468;28;20956;-64
2021/06/02 18:27:16;;;;;;;;;;;24.60;42.10;;;;;;10458325;28;20304;-64
2021/06/02 18:32:18;;;;;;;;;;;24.50;42.50;;;;;;10443509;28;19931;-64
2021/06/02 18:37:20;;;;;;;;;;;24.30;42.60;;;;;;10472177;28;20487;-64
2021/06/02 18:42:23;;;;;;;;;;;24.00;44.00;;;;;;10460798;28;19939;-64
2021/06/02 18:47:24;;;;;;;;;;;23.90;45.10;;;;;;10462525;28;20285;-65
2021/06/02 18:52:26;;;;;;;;;;;23.60;47.20;;;;;;10476062;28;20018;-64
2021/06/02 18:57:28;;;;;;;;;;;23.40;47.70;;;;;;10478692;28;19928;-64
2021/06/02 19:02:30;;;;;;;;;;;23.10;47.60;;;;;;10443402;28;20296;-64
2021/06/02 19:07:32;;;;;;;;;;;22.60;48.30;;;;;;10443551;28;19950;-64
2021/06/02 19:12:33;;;;;;;;;;;22.20;50.20;;;;;;10442843;28;20379;-67
2021/06/02 19:17:36;;;;;;;;;;;22.00;50.20;;;;;;10442453;28;20490;-67
2021/06/02 19:22:39;;;;;;;;;;;21.80;51.90;;;;;;10467216;28;20407;-67
2021/06/02 19:27:41;;;;;;;;;;;21.30;53.60;;;;;;10428749;28;19925;-67
2021/06/02 19:32:43;;;;;;;;;;;21.10;53.60;;;;;;10455180;28;20012;-67
2021/06/02 19:37:48;;;;;;;;;;;21.00;53.70;;;;;;10479417;28;19939;-66
2021/06/02 19:42:51;;;;;;;;;;;20.80;54.40;;;;;;10437446;28;19925;-67
2021/06/02 19:47:57;;;;;;;;;;;20.50;54.30;;;;;;10452756;28;20368;-66
2021/06/02 19:53:00;;;;;;;;;;;20.30;54.70;;;;;;10466626;28;20463;-66
2021/06/02 19:58:02;;;;;;;;;;;20.20;56.00;;;;;;10452351;28;20239;-66
2021/06/02 20:03:04;;;;;;;;;;;20.20;55.90;;;;;;10457722;28;19924;-66
2021/06/02 20:08:12;;;;;;;;;;;20.20;56.60;;;;;;10452552;28;19924;-66
2021/06/02 20:13:13;;;;;;;;;;;20.10;56.50;;;;;;10463620;28;19939;-66
2021/06/02 20:18:15;;;;;;;;;;;19.80;57.60;;;;;;10476698;28;20474;-66
2021/06/02 20:23:17;;;;;;;;;;;19.60;58.90;;;;;;10475463;28;20003;-66
2021/06/02 20:28:34;;;;;;;;;;;19.30;60.30;;;;;;10461122;28;19978;-65
2021/06/02 20:33:37;;;;;;;;;;;19.30;59.80;;;;;;10474014;28;19924;-66
2021/06/02 20:38:39;;;;;;;;;;;19.10;61.60;;;;;;10477916;28;19928;-66
2021/06/02 20:43:41;;;;;;;;;;;19.00;61.30;;;;;;10487008;28;19925;-66
2021/06/02 20:48:43;;;;;;;;;;;18.90;62.30;;;;;;10466197;28;19935;-66
2021/06/02 20:53:45;;;;;;;;;;;18.90;62.20;;;;;;10456895;28;19931;-66
2021/06/02 20:58:46;;;;;;;;;;;18.70;64.00;;;;;;10471707;28;19934;-66
2021/06/02 21:03:48;;;;;;;;;;;18.50;64.80;;;;;;10467029;28;20392;-66
2021/06/02 21:08:50;;;;;;;;;;;18.40;64.60;;;;;;10471228;28;19929;-66
2021/06/02 21:13:52;;;;;;;;;;;18.30;65.60;;;;;;10484618;28;19928;-66
2021/06/02 21:18:54;;;;;;;;;;;18.30;65.50;;;;;;10455387;28;19929;-66
2021/06/02 21:23:55;;;;;;;;;;;18.20;66.50;;;;;;10473790;28;19925;-66
2021/06/02 21:28:57;;;;;;;;;;;18.10;66.50;;;;;;10465975;28;19928;-66
2021/06/02 21:33:59;;;;;;;;;;;18.10;67.40;;;;;;10481293;28;19925;-66
2021/06/02 21:39:01;;;;;;;;;;;18.10;69.60;;;;;;10489136;28;20284;-66
2021/06/02 21:44:03;;;;;;;;;;;17.80;72.50;;;;;;10483241;28;19971;-66
2021/06/02 21:49:05;;;;;;;;;;;17.60;74.70;;;;;;10468072;28;19929;-66
2021/06/02 21:54:07;;;;;;;;;;;17.50;78.20;;;;;;10433344;28;19931;-66
2021/06/02 21:59:10;;;;;;;;;;;17.40;80.70;;;;;;10463542;28;20410;-66
2021/06/02 22:04:12;;;;;;;;;;;17.30;83.20;;;;;;10453091;28;20023;-66
2021/06/02 22:09:14;;;;;;;;;;;17.20;86.60;;;;;;10472164;28;20410;-66
2021/06/02 22:14:16;;;;;;;;;;;17.00;90.70;;;;;;10483601;28;19925;-65
2021/06/02 22:19:18;;;;;;;;;;;17.10;91.50;;;;;;10480956;28;19925;-64
2021/06/02 22:24:20;;;;;;;;;;;17.10;93.80;;;;;;10480792;28;20005;-66
2021/06/02 22:29:21;;;;;;;;;;;17.20;93.90;;;;;;10466866;28;19929;-66
2021/06/02 22:34:23;;;;;;;;;;;17.10;94.50;;;;;;10450688;28;19931;-65
2021/06/02 22:39:25;;;;;;;;;;;17.20;94.70;;;;;;10480180;28;19943;-65
2021/06/02 22:44:28;;;;;;;;;;;17.00;96.10;;;;;;10472255;28;20043;-65
2021/06/02 22:49:30;;;;;;;;;;;17.00;96.70;;;;;;10475208;28;19924;-65
2021/06/02 22:54:32;;;;;;;;;;;16.90;98.40;;;;;;10480030;28;20411;-65
2021/06/02 22:59:34;;;;;;;;;;;16.70;99.90;;;;;;10466804;28;19939;-66
2021/06/02 23:04:36;;;;;;;;;;;16.40;99.90;;;;;;10446129;28;19931;-66
2021/06/02 23:09:38;;;;;;;;;;;16.40;99.90;;;;;;10464260;28;20949;-66
2021/06/02 23:14:40;;;;;;;;;;;16.40;99.90;;;;;;10472847;28;19929;-66
2021/06/02 23:19:41;;;;;;;;;;;16.30;99.90;;;;;;10458154;28;19933;-67
2021/06/02 23:24:43;;;;;;;;;;;16.40;99.90;;;;;;10466614;28;19925;-66
2021/06/02 23:29:46;;;;;;;;;;;16.50;99.90;;;;;;10448482;28;19933;-66
2021/06/02 23:34:48;;;;;;;;;;;16.30;99.90;;;;;;10467600;28;19932;-66
2021/06/02 23:39:50;;;;;;;;;;;16.00;99.90;;;;;;10426686;28;19929;-66
2021/06/02 23:44:52;;;;;;;;;;;16.10;99.90;;;;;;10440995;28;19929;-66
2021/06/02 23:49:54;;;;;;;;;;;16.10;99.90;;;;;;10469481;28;20049;-66
2021/06/02 23:54:56;;;;;;;;;;;16.00;99.90;;;;;;10476473;28;20035;-66
2021/06/02 23:59:58;;;;;;;;;;;15.90;99.90;;;;;;10445636;28;19924;-66
